createdAt,value
2024-02-13T00:00:59.738Z,64.35
2024-02-13T00:03:26.737Z,62.88
2024-02-13T00:05:53.423Z,62.17
2024-02-13T00:08:20.651Z,62.61
2024-02-13T00:10:49.017Z,62.86
2024-02-13T00:13:15.961Z,63.16
2024-02-13T00:15:42.533Z,63.81
2024-02-13T00:18:09.574Z,62.35
2024-02-13T00:20:36.869Z,62.52
2024-02-13T00:23:05.514Z,62.72
2024-02-13T00:25:33.999Z,62.11
2024-02-13T00:28:00.563Z,62.39
2024-02-13T00:30:28.463Z,61.59
2024-02-13T00:33:10.668Z,61.18
2024-02-13T00:35:57.663Z,61.74
2024-02-13T00:38:25.309Z,61.00
2024-02-13T00:40:51.877Z,60.67
2024-02-13T00:43:20.735Z,60.71
2024-02-13T00:45:50.325Z,60.88
2024-02-13T00:48:20.840Z,61.20
2024-02-13T00:50:49.408Z,61.32
2024-02-13T00:53:17.099Z,61.34
2024-02-13T00:55:44.448Z,62.01
2024-02-13T00:58:11.445Z,62.02
2024-02-13T01:00:41.043Z,61.92
2024-02-13T01:03:08.147Z,62.12
2024-02-13T01:05:38.289Z,60.89
2024-02-13T01:08:05.953Z,60.78
2024-02-13T01:10:32.573Z,60.92
2024-02-13T01:13:00.649Z,60.79
2024-02-13T01:15:28.248Z,60.05
2024-02-13T01:17:57.636Z,59.44
2024-02-13T01:20:25.348Z,59.91
2024-02-13T01:22:55.070Z,60.59
2024-02-13T01:25:24.213Z,60.54
2024-02-13T01:27:51.103Z,60.38
2024-02-13T01:30:18.100Z,60.00
2024-02-13T01:32:44.941Z,59.88
2024-02-13T01:35:13.044Z,60.30
2024-02-13T01:37:41.204Z,60.37
2024-02-13T01:40:08.760Z,59.62
2024-02-13T01:42:38.406Z,58.79
2024-02-13T01:45:07.980Z,59.18
2024-02-13T01:47:43.656Z,59.18
2024-02-13T01:50:12.007Z,60.06
2024-02-13T01:52:38.993Z,59.89
2024-02-13T01:55:07.381Z,60.67
2024-02-13T01:57:37.380Z,60.20
2024-02-13T02:00:14.496Z,61.13
2024-02-13T02:02:47.055Z,60.70
2024-02-13T02:05:14.934Z,60.31
2024-02-13T02:07:50.806Z,60.69
2024-02-13T02:10:17.437Z,60.03
2024-02-13T02:12:50.847Z,60.10
2024-02-13T02:15:18.033Z,60.77
2024-02-13T02:17:54.264Z,60.55
2024-02-13T02:20:22.805Z,60.42
2024-02-13T02:22:51.301Z,60.58
2024-02-13T02:25:23.369Z,61.05
2024-02-13T02:28:09.988Z,61.56
2024-02-13T02:30:49.064Z,62.31
2024-02-13T02:33:16.084Z,61.40
2024-02-13T02:35:43.680Z,62.50
2024-02-13T02:38:11.495Z,62.36
2024-02-13T02:40:41.437Z,61.02
2024-02-13T02:43:08.201Z,62.23
2024-02-13T02:45:35.093Z,61.35
2024-02-13T02:48:02.018Z,61.70
2024-02-13T02:50:28.962Z,61.53
2024-02-13T02:52:55.618Z,61.71
2024-02-13T02:55:23.310Z,61.74
2024-02-13T02:57:50.475Z,61.50
2024-02-13T03:00:19.736Z,61.71
2024-02-13T03:02:56.045Z,62.23
2024-02-13T03:05:22.780Z,61.76
2024-02-13T03:07:49.454Z,62.26
2024-02-13T03:10:16.047Z,61.09
2024-02-13T03:12:42.628Z,61.59
2024-02-13T03:15:09.711Z,60.81
2024-02-13T03:17:40.014Z,61.91
2024-02-13T03:20:11.721Z,63.06
2024-02-13T03:22:53.581Z,63.95
2024-02-13T03:25:20.364Z,63.96
2024-02-13T03:28:06.857Z,64.52
2024-02-13T03:30:34.346Z,64.28
2024-02-13T03:33:02.250Z,62.47
2024-02-13T03:35:31.626Z,62.22
2024-02-13T03:37:58.830Z,62.19
2024-02-13T03:40:25.777Z,63.89
2024-02-13T03:42:52.395Z,63.05
2024-02-13T03:45:19.090Z,62.68
2024-02-13T03:47:54.798Z,61.74
2024-02-13T03:50:21.600Z,62.33
2024-02-13T03:52:48.341Z,62.07
2024-02-13T03:55:15.130Z,63.25
2024-02-13T03:57:41.743Z,62.93
2024-02-13T04:00:09.059Z,62.49
2024-02-13T04:02:36.033Z,61.15
2024-02-13T04:05:02.691Z,62.23
2024-02-13T04:07:30.928Z,61.79
2024-02-13T04:09:57.580Z,61.57
2024-02-13T04:12:24.429Z,60.93
2024-02-13T04:14:51.208Z,60.09
2024-02-13T04:17:19.349Z,60.88
2024-02-13T04:19:46.127Z,61.01
2024-02-13T04:22:12.716Z,60.50
2024-02-13T04:24:39.350Z,61.33
2024-02-13T04:27:06.245Z,60.36
2024-02-13T04:29:33.673Z,60.88
2024-02-13T04:32:00.539Z,61.38
2024-02-13T04:34:30.786Z,61.26
2024-02-13T04:36:58.786Z,61.07
2024-02-13T04:39:25.903Z,61.02
2024-02-13T04:41:52.722Z,61.24
2024-02-13T04:44:21.203Z,61.11
2024-02-13T04:46:47.844Z,62.59
2024-02-13T04:49:15.059Z,61.66
2024-02-13T04:51:41.712Z,62.25
2024-02-13T04:54:08.417Z,62.18
2024-02-13T04:56:35.192Z,62.04
2024-02-13T04:59:03.663Z,61.32
2024-02-13T05:01:31.041Z,62.15
2024-02-13T05:04:15.760Z,62.78
2024-02-13T05:07:00.806Z,62.73
2024-02-13T05:09:27.447Z,62.83
2024-02-13T05:11:54.700Z,63.38
2024-02-13T05:14:21.467Z,63.39
2024-02-13T05:16:48.635Z,62.38
2024-02-13T05:19:16.510Z,62.18
2024-02-13T05:21:43.458Z,63.66
2024-02-13T05:24:10.551Z,62.09
2024-02-13T05:26:37.448Z,61.47
2024-02-13T05:29:05.725Z,62.12
2024-02-13T05:31:32.504Z,61.29
2024-02-13T05:33:59.364Z,62.47
2024-02-13T05:36:27.182Z,62.72
2024-02-13T05:38:54.129Z,61.83
2024-02-13T05:41:20.903Z,62.54
2024-02-13T05:43:47.599Z,63.25
2024-02-13T05:46:14.731Z,63.37
2024-02-13T05:48:44.108Z,63.19
2024-02-13T05:51:15.904Z,65.23
2024-02-13T05:53:43.722Z,64.17
2024-02-13T05:56:14.166Z,63.13
2024-02-13T05:58:43.067Z,62.66
2024-02-13T06:01:14.144Z,63.35
2024-02-13T06:03:41.577Z,63.08
2024-02-13T06:06:08.508Z,63.03
2024-02-13T06:08:36.125Z,62.63
2024-02-13T06:11:03.267Z,62.41
2024-02-13T06:13:30.336Z,61.90
2024-02-13T06:15:56.942Z,61.98
2024-02-13T06:18:24.495Z,61.66
2024-02-13T06:20:51.718Z,61.97
2024-02-13T06:23:18.638Z,62.35
2024-02-13T06:25:45.412Z,61.80
2024-02-13T06:28:12.166Z,61.90
2024-02-13T06:30:40.443Z,61.80
2024-02-13T06:33:07.247Z,62.91
2024-02-13T06:35:34.686Z,61.98
2024-02-13T06:38:12.256Z,61.30
2024-02-13T06:40:39.667Z,60.94
2024-02-13T06:43:06.638Z,62.80
2024-02-13T06:45:33.259Z,62.71
2024-02-13T06:48:00.094Z,62.68
2024-02-13T06:50:26.920Z,62.55
2024-02-13T06:52:55.299Z,61.85
2024-02-13T06:55:22.011Z,61.83
2024-02-13T06:57:57.033Z,62.19
2024-02-13T07:00:26.503Z,61.79
2024-02-13T07:02:55.257Z,64.04
2024-02-13T07:05:22.032Z,64.01
2024-02-13T07:07:50.174Z,64.90
2024-02-13T07:10:17.781Z,66.13
2024-02-13T07:12:57.879Z,65.29
2024-02-13T07:15:25.219Z,65.00
2024-02-13T07:17:57.068Z,64.35
2024-02-13T07:20:27.742Z,64.73
2024-02-13T07:22:54.438Z,64.49
2024-02-13T07:25:21.192Z,64.47
2024-02-13T07:27:48.559Z,64.75
2024-02-13T07:30:16.226Z,63.55
2024-02-13T07:32:43.390Z,62.55
2024-02-13T07:35:10.576Z,61.83
2024-02-13T07:37:48.411Z,61.44
2024-02-13T07:40:15.305Z,61.26
2024-02-13T07:42:42.065Z,60.23
2024-02-13T07:45:09.528Z,59.99
2024-02-13T07:47:54.962Z,61.56
2024-02-13T07:50:22.477Z,61.72
2024-02-13T07:52:49.179Z,61.80
2024-02-13T07:55:15.750Z,61.15
2024-02-13T07:57:42.756Z,60.03
2024-02-13T08:00:11.815Z,58.66
2024-02-13T08:02:38.493Z,56.53
2024-02-13T08:05:06.307Z,56.43
2024-02-13T08:07:34.652Z,56.01
2024-02-13T08:10:01.203Z,55.96
2024-02-13T08:12:27.994Z,54.64
2024-02-13T08:14:55.318Z,54.42
2024-02-13T08:17:22.155Z,54.80
2024-02-13T08:19:49.099Z,54.36
2024-02-13T08:22:19.249Z,54.79
2024-02-13T08:24:45.915Z,54.87
2024-02-13T08:27:13.057Z,56.07
2024-02-13T08:29:39.669Z,54.87
2024-02-13T08:32:07.654Z,54.95
2024-02-13T08:34:34.924Z,55.72
2024-02-13T08:37:01.728Z,56.38
2024-02-13T08:39:28.318Z,56.60
2024-02-13T08:41:56.036Z,56.51
2024-02-13T08:44:22.871Z,56.75
2024-02-13T08:46:50.239Z,57.84
2024-02-13T08:49:17.859Z,58.79
2024-02-13T08:51:44.810Z,58.24
2024-02-13T08:54:12.738Z,58.78
2024-02-13T08:56:40.727Z,58.74
2024-02-13T08:59:07.962Z,57.10
2024-02-13T09:01:35.113Z,56.48
2024-02-13T09:04:02.336Z,56.74
2024-02-13T09:06:48.659Z,56.32
2024-02-13T09:09:34.975Z,55.50
2024-02-13T09:12:05.279Z,54.78
2024-02-13T09:14:32.573Z,54.86
2024-02-13T09:17:00.552Z,54.29
2024-02-13T09:19:28.332Z,55.17
2024-02-13T09:21:55.128Z,55.38
2024-02-13T09:24:24.209Z,56.39
2024-02-13T09:26:52.694Z,57.11
2024-02-13T09:29:19.889Z,58.08
2024-02-13T09:31:47.493Z,57.89
2024-02-13T09:34:14.680Z,59.89
2024-02-13T09:36:42.094Z,59.98
2024-02-13T09:39:10.098Z,60.13
2024-02-13T09:41:43.288Z,59.10
2024-02-13T09:44:10.210Z,60.14
2024-02-13T09:46:39.962Z,60.64
2024-02-13T09:49:08.242Z,59.36
2024-02-13T09:51:35.087Z,60.28
2024-02-13T09:54:04.548Z,59.89
2024-02-13T09:56:32.943Z,59.21
2024-02-13T09:59:00.644Z,59.03
2024-02-13T10:01:27.394Z,59.25
2024-02-13T10:03:54.184Z,59.16
2024-02-13T10:06:21.114Z,59.27
2024-02-13T10:08:53.333Z,57.99
2024-02-13T10:11:35.388Z,57.83
2024-02-13T10:14:04.154Z,57.88
2024-02-13T10:16:32.015Z,57.24
2024-02-13T10:19:02.985Z,58.10
2024-02-13T10:21:31.139Z,58.12
2024-02-13T10:24:08.607Z,59.20
2024-02-13T10:26:37.042Z,59.63
2024-02-13T10:29:04.624Z,58.97
2024-02-13T10:31:39.025Z,59.41
2024-02-13T10:34:12.635Z,59.49
2024-02-13T10:36:44.331Z,58.54
2024-02-13T10:39:13.718Z,58.05
2024-02-13T10:41:42.125Z,57.37
2024-02-13T10:44:14.555Z,57.63
2024-02-13T10:46:42.289Z,57.92
2024-02-13T10:49:25.373Z,58.36
2024-02-13T10:51:54.709Z,58.15
2024-02-13T10:54:25.272Z,57.65
2024-02-13T10:56:56.173Z,59.23
2024-02-13T10:59:24.006Z,59.51
2024-02-13T11:01:52.796Z,59.13
2024-02-13T11:04:21.001Z,58.61
2024-02-13T11:06:47.752Z,58.66
2024-02-13T11:09:14.454Z,57.53
2024-02-13T11:11:45.909Z,57.66
2024-02-13T11:14:23.120Z,57.69
2024-02-13T11:17:13.308Z,58.52
2024-02-13T11:20:00.522Z,56.81
2024-02-13T11:22:38.595Z,55.33
2024-02-13T11:25:12.321Z,55.49
2024-02-13T11:28:07.031Z,55.61
2024-02-13T11:30:35.781Z,55.04
2024-02-13T11:33:07.827Z,54.42
2024-02-13T11:35:40.787Z,54.84
2024-02-13T11:38:17.325Z,55.00
2024-02-13T11:40:45.197Z,56.29
2024-02-13T11:43:22.642Z,55.92
2024-02-13T11:45:50.346Z,56.39
2024-02-13T11:48:22.269Z,55.76
2024-02-13T11:50:49.115Z,55.41
2024-02-13T11:53:19.682Z,55.39
2024-02-13T11:55:46.644Z,54.36
2024-02-13T11:58:21.104Z,54.92
2024-02-13T12:01:05.568Z,53.52
2024-02-13T12:03:41.302Z,54.12
2024-02-13T12:06:10.422Z,53.00
2024-02-13T12:08:42.735Z,52.55
2024-02-13T12:11:09.980Z,51.97
2024-02-13T12:13:37.645Z,52.13
2024-02-13T12:16:05.675Z,50.66
2024-02-13T12:18:32.732Z,53.78
2024-02-13T12:21:00.849Z,53.46
2024-02-13T12:23:27.690Z,52.73
2024-02-13T12:26:07.398Z,53.38
2024-02-13T12:28:34.392Z,54.40
2024-02-13T12:31:03.628Z,53.35
2024-02-13T12:33:33.450Z,53.25
2024-02-13T12:36:08.876Z,53.85
2024-02-13T12:38:39.292Z,53.67
2024-02-13T12:41:06.204Z,51.62
2024-02-13T12:43:32.856Z,52.32
2024-02-13T12:46:03.365Z,51.35
2024-02-13T12:48:37.935Z,50.74
2024-02-13T12:51:10.583Z,51.48
2024-02-13T12:53:40.357Z,51.85
2024-02-13T12:56:09.685Z,52.47
2024-02-13T12:58:36.350Z,51.92
2024-02-13T13:01:05.188Z,51.80
2024-02-13T13:03:32.069Z,49.74
2024-02-13T13:05:59.588Z,50.25
2024-02-13T13:08:28.080Z,50.07
2024-02-13T13:10:54.984Z,49.12
2024-02-13T13:13:23.916Z,49.08
2024-02-13T13:15:50.848Z,49.27
2024-02-13T13:18:21.280Z,49.23
2024-02-13T13:20:49.225Z,49.94
2024-02-13T13:23:16.671Z,49.24
2024-02-13T13:25:50.076Z,50.29
2024-02-13T13:28:19.293Z,50.52
2024-02-13T13:30:47.454Z,50.32
2024-02-13T13:33:19.606Z,50.93
2024-02-13T13:35:48.002Z,50.46
2024-02-13T13:38:18.235Z,50.29
2024-02-13T13:40:45.212Z,50.36
2024-02-13T13:43:12.231Z,49.66
2024-02-13T13:45:53.961Z,50.16
2024-02-13T13:48:21.566Z,50.45
2024-02-13T13:50:48.886Z,49.60
2024-02-13T13:53:15.855Z,51.09
2024-02-13T13:55:42.732Z,49.67
2024-02-13T13:58:09.289Z,51.14
2024-02-13T14:00:36.227Z,52.09
2024-02-13T14:03:03.772Z,52.31
2024-02-13T14:05:35.147Z,52.40
2024-02-13T14:08:06.161Z,50.76
2024-02-13T14:10:34.390Z,50.44
2024-02-13T14:13:06.374Z,50.02
2024-02-13T14:15:35.459Z,50.45
2024-02-13T14:18:05.559Z,51.28
2024-02-13T14:20:36.203Z,50.61
2024-02-13T14:23:03.090Z,49.85
2024-02-13T14:25:29.680Z,50.91
2024-02-13T14:27:56.565Z,51.33
2024-02-13T14:30:23.471Z,51.84
2024-02-13T14:32:50.982Z,51.52
2024-02-13T14:35:18.792Z,51.65
2024-02-13T14:37:57.547Z,51.38
2024-02-13T14:40:24.409Z,52.30
2024-02-13T14:42:51.048Z,52.20
2024-02-13T14:45:17.640Z,51.36
2024-02-13T14:47:44.309Z,52.65
2024-02-13T14:50:12.058Z,53.12
2024-02-13T14:52:40.162Z,52.86
2024-02-13T14:55:08.079Z,53.38
2024-02-13T14:57:41.661Z,53.49
2024-02-13T15:00:14.403Z,53.34
2024-02-13T15:02:54.013Z,53.67
2024-02-13T15:05:22.788Z,55.03
2024-02-13T15:07:53.364Z,53.88
2024-02-13T15:10:20.274Z,53.20
2024-02-13T15:12:47.302Z,53.44
2024-02-13T15:15:18.330Z,52.78
2024-02-13T15:18:05.433Z,52.68
2024-02-13T15:20:32.454Z,52.11
2024-02-13T15:22:59.047Z,52.70
2024-02-13T15:25:25.786Z,53.04
2024-02-13T15:27:52.382Z,52.90
2024-02-13T15:30:18.969Z,53.19
2024-02-13T15:32:58.196Z,53.21
2024-02-13T15:35:32.554Z,53.60
2024-02-13T15:38:17.936Z,53.00
2024-02-13T15:41:03.272Z,52.52
2024-02-13T15:43:48.606Z,52.29
2024-02-13T15:46:33.890Z,52.79
2024-02-13T15:49:00.830Z,52.34
2024-02-13T15:51:29.737Z,53.07
2024-02-13T15:53:56.525Z,52.65
2024-02-13T15:56:23.228Z,53.07
2024-02-13T15:58:50.936Z,53.03
2024-02-13T16:01:18.694Z,53.13
2024-02-13T16:03:45.532Z,53.37
2024-02-13T16:06:12.682Z,53.00
2024-02-13T16:08:39.842Z,52.55
2024-02-13T16:11:07.349Z,52.43
2024-02-13T16:13:33.970Z,52.29
2024-02-13T16:16:01.521Z,52.30
2024-02-13T16:18:28.642Z,52.13
2024-02-13T16:20:55.378Z,51.77
2024-02-13T16:23:22.133Z,51.63
2024-02-13T16:25:48.963Z,52.14
2024-02-13T16:28:15.633Z,52.12
2024-02-13T16:30:45.024Z,52.11
2024-02-13T16:33:13.436Z,52.23
2024-02-13T16:35:41.326Z,53.40
2024-02-13T16:38:08.358Z,53.21
2024-02-13T16:40:35.120Z,52.95
2024-02-13T16:43:05.274Z,53.72
2024-02-13T16:45:32.471Z,54.13
2024-02-13T16:47:59.750Z,53.85
2024-02-13T16:50:28.990Z,53.58
2024-02-13T16:52:55.856Z,53.48
2024-02-13T16:55:25.535Z,53.08
2024-02-13T16:57:53.090Z,52.76
2024-02-13T17:00:23.267Z,52.92
2024-02-13T17:02:50.472Z,53.74
2024-02-13T17:05:19.227Z,53.71
2024-02-13T17:07:46.689Z,52.98
2024-02-13T17:10:13.801Z,52.65
2024-02-13T17:12:41.117Z,53.00
2024-02-13T17:15:09.065Z,52.31
2024-02-13T17:17:35.966Z,52.54
2024-02-13T17:20:05.020Z,52.95
2024-02-13T17:22:31.850Z,53.64
2024-02-13T17:24:58.481Z,53.38
2024-02-13T17:27:25.509Z,53.40
2024-02-13T17:29:52.915Z,54.40
2024-02-13T17:32:19.571Z,53.85
2024-02-13T17:34:46.184Z,55.10
2024-02-13T17:37:13.274Z,53.97
2024-02-13T17:39:40.212Z,53.23
2024-02-13T17:42:06.996Z,53.29
2024-02-13T17:44:34.790Z,53.50
2024-02-13T17:47:01.421Z,54.12
2024-02-13T17:49:28.375Z,54.19
2024-02-13T17:51:54.960Z,54.24
2024-02-13T17:54:24.471Z,54.17
2024-02-13T17:56:51.952Z,54.35
2024-02-13T17:59:18.647Z,53.39
2024-02-13T18:01:49.692Z,52.65
2024-02-13T18:04:17.191Z,53.59
2024-02-13T18:06:44.550Z,53.67
2024-02-13T18:09:11.684Z,53.98
2024-02-13T18:11:39.089Z,53.71
2024-02-13T18:14:08.936Z,53.44
2024-02-13T18:16:35.566Z,53.28
2024-02-13T18:19:06.946Z,53.55
2024-02-13T18:21:34.053Z,52.91
2024-02-13T18:24:02.531Z,53.46
2024-02-13T18:26:30.088Z,53.19
2024-02-13T18:28:57.732Z,54.05
2024-02-13T18:31:25.170Z,53.50
2024-02-13T18:33:52.204Z,53.78
2024-02-13T18:36:19.548Z,53.60
2024-02-13T18:38:48.766Z,53.04
2024-02-13T18:41:15.432Z,52.70
2024-02-13T18:43:42.050Z,54.17
2024-02-13T18:46:10.836Z,54.02
2024-02-13T18:48:39.008Z,53.78
2024-02-13T18:51:06.191Z,54.15
2024-02-13T18:53:33.082Z,54.81
2024-02-13T18:55:59.710Z,54.57
2024-02-13T18:58:26.423Z,54.52
2024-02-13T19:00:53.043Z,54.31
2024-02-13T19:03:21.355Z,54.31
2024-02-13T19:05:49.324Z,55.67
2024-02-13T19:08:16.312Z,54.85
2024-02-13T19:10:43.272Z,53.95
2024-02-13T19:13:09.896Z,54.29
2024-02-13T19:15:36.883Z,55.41
2024-02-13T19:18:04.212Z,55.67
2024-02-13T19:20:31.162Z,55.35
2024-02-13T19:22:57.770Z,55.19
2024-02-13T19:25:24.375Z,54.34
2024-02-13T19:27:51.047Z,54.95
2024-02-13T19:30:17.810Z,55.92
2024-02-13T19:32:57.484Z,55.20
2024-02-13T19:35:24.380Z,55.28
2024-02-13T19:37:52.159Z,55.40
2024-02-13T19:40:19.805Z,55.49
2024-02-13T19:42:54.020Z,55.35
2024-02-13T19:45:21.557Z,55.10
2024-02-13T19:47:54.391Z,55.16
2024-02-13T19:50:41.246Z,55.09
2024-02-13T19:53:28.396Z,55.83
2024-02-13T19:56:15.401Z,55.52
2024-02-13T19:59:02.218Z,55.47
2024-02-13T20:01:49.405Z,55.74
2024-02-13T20:04:36.006Z,54.95
2024-02-13T20:07:22.646Z,55.26
2024-02-13T20:09:49.250Z,55.77
2024-02-13T20:12:17.467Z,55.65
2024-02-13T20:14:45.386Z,55.46
2024-02-13T20:17:12.028Z,54.55
2024-02-13T20:19:38.793Z,55.70
2024-02-13T20:22:05.407Z,55.69
2024-02-13T20:24:33.760Z,54.49
2024-02-13T20:27:01.001Z,54.89
2024-02-13T20:29:27.694Z,54.64
2024-02-13T20:31:54.991Z,54.58
2024-02-13T20:34:23.934Z,54.65
2024-02-13T20:36:54.397Z,54.54
2024-02-13T20:39:21.503Z,55.00
2024-02-13T20:41:48.600Z,55.21
2024-02-13T20:44:15.760Z,56.16
2024-02-13T20:46:43.743Z,55.71
2024-02-13T20:49:13.575Z,56.01
2024-02-13T20:51:42.953Z,55.14
2024-02-13T20:54:13.380Z,54.29
2024-02-13T20:56:40.682Z,54.56
2024-02-13T20:59:09.559Z,54.52
2024-02-13T21:01:39.265Z,54.17
2024-02-13T21:04:12.591Z,54.42
2024-02-13T21:06:42.147Z,53.97
2024-02-13T21:09:11.357Z,54.60
2024-02-13T21:11:38.195Z,54.15
2024-02-13T21:14:05.364Z,54.56
2024-02-13T21:16:34.512Z,55.12
2024-02-13T21:19:02.881Z,54.84
2024-02-13T21:21:48.156Z,54.23
2024-02-13T21:24:14.953Z,54.70
2024-02-13T21:26:41.738Z,53.61
2024-02-13T21:29:09.026Z,53.35
2024-02-13T21:31:37.582Z,53.22
2024-02-13T21:34:06.887Z,52.88
2024-02-13T21:36:35.743Z,53.28
2024-02-13T21:39:08.519Z,53.06
2024-02-13T21:41:36.692Z,53.74
2024-02-13T21:44:04.091Z,53.28
2024-02-13T21:46:31.232Z,54.41
2024-02-13T21:48:58.364Z,53.79
2024-02-13T21:51:25.779Z,54.25
2024-02-13T21:53:53.591Z,54.20
2024-02-13T21:56:21.155Z,54.50
2024-02-13T21:58:48.929Z,53.09
2024-02-13T22:01:16.669Z,53.19
2024-02-13T22:03:43.482Z,53.38
2024-02-13T22:06:11.710Z,53.38
2024-02-13T22:08:38.461Z,52.86
2024-02-13T22:11:05.086Z,53.68
2024-02-13T22:13:31.673Z,53.46
2024-02-13T22:15:59.113Z,53.30
2024-02-13T22:18:26.503Z,54.78
2024-02-13T22:20:53.594Z,54.37
2024-02-13T22:23:20.323Z,53.95
2024-02-13T22:25:46.877Z,54.33
2024-02-13T22:28:14.929Z,54.25
2024-02-13T22:30:43.209Z,54.04
2024-02-13T22:33:22.822Z,54.17
2024-02-13T22:35:49.582Z,54.32
2024-02-13T22:38:16.237Z,53.86
2024-02-13T22:40:42.878Z,53.96
2024-02-13T22:43:09.492Z,53.91
2024-02-13T22:45:36.334Z,53.10
2024-02-13T22:48:03.252Z,53.42
2024-02-13T22:50:30.583Z,53.44
2024-02-13T22:52:59.632Z,53.34
2024-02-13T22:55:30.117Z,53.46
2024-02-13T22:57:58.411Z,53.20
2024-02-13T23:00:49.531Z,53.54
2024-02-13T23:03:17.328Z,53.01
2024-02-13T23:05:54.826Z,53.26
2024-02-13T23:08:22.382Z,53.40
2024-02-13T23:10:49.218Z,54.40
2024-02-13T23:13:17.991Z,53.99
2024-02-13T23:15:44.586Z,54.93
2024-02-13T23:18:13.066Z,54.98
2024-02-13T23:20:40.347Z,55.50
2024-02-13T23:23:07.462Z,55.36
2024-02-13T23:25:36.379Z,55.39
2024-02-13T23:28:07.310Z,54.33
2024-02-13T23:30:36.006Z,54.48
2024-02-13T23:33:03.154Z,53.60
2024-02-13T23:35:29.980Z,54.62
2024-02-13T23:37:56.678Z,54.89
2024-02-13T23:40:23.863Z,55.10
2024-02-13T23:42:52.740Z,55.13
2024-02-13T23:45:19.494Z,54.72
2024-02-13T23:47:47.849Z,54.65
2024-02-13T23:50:14.812Z,54.91
2024-02-13T23:52:42.372Z,54.77
2024-02-13T23:55:12.317Z,54.92
2024-02-13T23:57:41.549Z,54.85
